sensor_id;sensor_type;location;lat;lon;timestamp;noise_LAeq;noise_LA_min;noise_LA_max;noise_LA01;noise_LA95
38366;Laerm;943;51.568;6.998;2024-02-14T00:01:24;40.65;36.42;54.06;;
38366;Laerm;943;51.568;6.998;2024-02-14T00:03:53;40.11;36.59;59.70;;
38366;Laerm;943;51.568;6.998;2024-02-14T00:06:21;40.48;36.69;48.23;;
38366;Laerm;943;51.568;6.998;2024-02-14T00:08:50;40.38;36.93;46.19;;
38366;Laerm;943;51.568;6.998;2024-02-14T00:11:18;40.46;36.92;47.56;;
38366;Laerm;943;51.568;6.998;2024-02-14T00:13:47;43.63;37.23;60.57;;
38366;Laerm;943;51.568;6.998;2024-02-14T00:16:15;40.97;37.08;48.63;;
38366;Laerm;943;51.568;6.998;2024-02-14T00:18:45;40.00;35.82;55.00;;
38366;Laerm;943;51.568;6.998;2024-02-14T00:21:16;38.88;35.50;53.32;;
38366;Laerm;943;51.568;6.998;2024-02-14T00:23:48;38.41;35.68;46.89;;
38366;Laerm;943;51.568;6.998;2024-02-14T00:26:16;41.00;36.92;48.20;;
38366;Laerm;943;51.568;6.998;2024-02-14T00:28:46;41.11;37.10;48.85;;
38366;Laerm;943;51.568;6.998;2024-02-14T00:31:18;40.17;37.29;45.39;;
38366;Laerm;943;51.568;6.998;2024-02-14T00:33:49;40.64;38.00;43.94;;
38366;Laerm;943;51.568;6.998;2024-02-14T00:36:19;40.38;37.62;45.16;;
38366;Laerm;943;51.568;6.998;2024-02-14T00:38:49;41.70;38.19;47.04;;
38366;Laerm;943;51.568;6.998;2024-02-14T00:41:18;50.78;38.06;68.11;;
38366;Laerm;943;51.568;6.998;2024-02-14T00:43:47;41.75;38.57;49.92;;
38366;Laerm;943;51.568;6.998;2024-02-14T00:46:19;47.89;40.13;61.26;;
38366;Laerm;943;51.568;6.998;2024-02-14T00:48:48;44.48;38.76;56.83;;
38366;Laerm;943;51.568;6.998;2024-02-14T00:51:17;40.15;37.02;44.68;;
38366;Laerm;943;51.568;6.998;2024-02-14T00:53:45;40.24;36.36;47.36;;
38366;Laerm;943;51.568;6.998;2024-02-14T00:56:20;41.59;37.80;47.86;;
38366;Laerm;943;51.568;6.998;2024-02-14T00:58:49;49.15;39.61;71.20;;
38366;Laerm;943;51.568;6.998;2024-02-14T01:01:18;41.63;36.98;50.08;;
38366;Laerm;943;51.568;6.998;2024-02-14T01:03:46;40.43;36.39;57.47;;
38366;Laerm;943;51.568;6.998;2024-02-14T01:06:16;40.87;37.75;45.14;;
38366;Laerm;943;51.568;6.998;2024-02-14T01:08:49;41.67;37.34;46.39;;
38366;Laerm;943;51.568;6.998;2024-02-14T01:11:18;40.98;37.29;48.73;;
38366;Laerm;943;51.568;6.998;2024-02-14T01:13:47;40.68;37.57;45.76;;
38366;Laerm;943;51.568;6.998;2024-02-14T01:16:16;40.63;37.24;47.80;;
38366;Laerm;943;51.568;6.998;2024-02-14T01:18:44;40.21;37.17;45.77;;
38366;Laerm;943;51.568;6.998;2024-02-14T01:21:13;41.05;38.04;46.08;;
38366;Laerm;943;51.568;6.998;2024-02-14T01:23:42;40.99;38.43;45.63;;
38366;Laerm;943;51.568;6.998;2024-02-14T01:26:10;41.83;38.85;46.75;;
38366;Laerm;943;51.568;6.998;2024-02-14T01:28:44;41.67;38.25;45.98;;
38366;Laerm;943;51.568;6.998;2024-02-14T01:31:14;41.54;38.27;47.41;;
38366;Laerm;943;51.568;6.998;2024-02-14T01:33:46;42.75;38.37;56.19;;
38366;Laerm;943;51.568;6.998;2024-02-14T01:36:16;41.74;37.09;55.51;;
38366;Laerm;943;51.568;6.998;2024-02-14T01:38:46;41.36;37.98;48.11;;
38366;Laerm;943;51.568;6.998;2024-02-14T01:41:15;40.87;37.08;46.08;;
38366;Laerm;943;51.568;6.998;2024-02-14T01:43:47;41.29;38.20;46.46;;
38366;Laerm;943;51.568;6.998;2024-02-14T01:46:17;41.12;37.57;45.58;;
38366;Laerm;943;51.568;6.998;2024-02-14T01:48:47;41.98;38.50;53.00;;
38366;Laerm;943;51.568;6.998;2024-02-14T01:51:22;42.08;38.34;55.35;;
38366;Laerm;943;51.568;6.998;2024-02-14T01:53:56;42.30;38.66;46.49;;
38366;Laerm;943;51.568;6.998;2024-02-14T01:56:27;45.12;38.84;61.85;;
38366;Laerm;943;51.568;6.998;2024-02-14T01:58:58;41.74;38.29;51.95;;
38366;Laerm;943;51.568;6.998;2024-02-14T02:01:28;41.85;39.03;49.36;;
38366;Laerm;943;51.568;6.998;2024-02-14T02:03:56;43.97;38.27;58.15;;
38366;Laerm;943;51.568;6.998;2024-02-14T02:06:30;41.52;37.89;55.56;;
38366;Laerm;943;51.568;6.998;2024-02-14T02:09:01;42.40;38.67;52.14;;
38366;Laerm;943;51.568;6.998;2024-02-14T02:11:56;40.49;37.19;48.22;;
38366;Laerm;943;51.568;6.998;2024-02-14T02:14:27;43.38;38.72;61.86;;
38366;Laerm;943;51.568;6.998;2024-02-14T02:16:57;45.65;37.59;65.96;;
38366;Laerm;943;51.568;6.998;2024-02-14T02:19:25;41.76;38.02;48.21;;
38366;Laerm;943;51.568;6.998;2024-02-14T02:21:55;41.63;38.86;45.17;;
38366;Laerm;943;51.568;6.998;2024-02-14T02:24:23;43.19;38.47;65.30;;
38366;Laerm;943;51.568;6.998;2024-02-14T02:26:52;42.38;38.75;50.55;;
38366;Laerm;943;51.568;6.998;2024-02-14T02:29:23;41.98;38.48;49.72;;
38366;Laerm;943;51.568;6.998;2024-02-14T02:31:53;41.90;38.88;46.83;;
38366;Laerm;943;51.568;6.998;2024-02-14T02:34:21;44.27;39.16;60.31;;
38366;Laerm;943;51.568;6.998;2024-02-14T02:36:52;46.70;38.40;69.90;;
38366;Laerm;943;51.568;6.998;2024-02-14T02:39:20;42.11;37.33;54.80;;
38366;Laerm;943;51.568;6.998;2024-02-14T02:41:50;42.43;38.74;54.48;;
38366;Laerm;943;51.568;6.998;2024-02-14T02:44:19;48.11;38.50;67.76;;
38366;Laerm;943;51.568;6.998;2024-02-14T02:46:48;43.08;39.24;55.74;;
38366;Laerm;943;51.568;6.998;2024-02-14T02:49:17;44.21;39.24;57.83;;
38366;Laerm;943;51.568;6.998;2024-02-14T02:51:46;42.56;39.12;47.65;;
38366;Laerm;943;51.568;6.998;2024-02-14T02:54:16;42.92;39.81;54.97;;
38366;Laerm;943;51.568;6.998;2024-02-14T02:56:45;42.98;39.27;57.89;;
38366;Laerm;943;51.568;6.998;2024-02-14T02:59:17;42.74;39.07;53.30;;
38366;Laerm;943;51.568;6.998;2024-02-14T03:01:46;42.43;38.96;56.57;;
38366;Laerm;943;51.568;6.998;2024-02-14T03:04:16;43.09;38.44;61.69;;
38366;Laerm;943;51.568;6.998;2024-02-14T03:06:46;43.93;39.72;65.63;;
38366;Laerm;943;51.568;6.998;2024-02-14T03:09:17;44.16;39.87;58.31;;
38366;Laerm;943;51.568;6.998;2024-02-14T03:11:50;45.02;39.74;60.59;;
38366;Laerm;943;51.568;6.998;2024-02-14T03:14:18;42.93;39.91;60.55;;
38366;Laerm;943;51.568;6.998;2024-02-14T03:16:50;47.42;40.84;66.96;;
38366;Laerm;943;51.568;6.998;2024-02-14T03:19:21;43.04;39.53;57.53;;
38366;Laerm;943;51.568;6.998;2024-02-14T03:21:50;44.32;40.40;62.62;;
38366;Laerm;943;51.568;6.998;2024-02-14T03:24:21;43.38;39.65;56.65;;
38366;Laerm;943;51.568;6.998;2024-02-14T03:26:54;43.17;39.87;52.69;;
38366;Laerm;943;51.568;6.998;2024-02-14T03:29:24;46.11;40.12;64.34;;
38366;Laerm;943;51.568;6.998;2024-02-14T03:32:03;43.97;39.73;60.20;;
38366;Laerm;943;51.568;6.998;2024-02-14T03:34:36;44.74;40.60;56.94;;
38366;Laerm;943;51.568;6.998;2024-02-14T03:37:08;44.48;41.59;53.17;;
38366;Laerm;943;51.568;6.998;2024-02-14T03:39:37;44.38;40.30;51.16;;
38366;Laerm;943;51.568;6.998;2024-02-14T03:42:09;45.88;41.10;55.81;;
38366;Laerm;943;51.568;6.998;2024-02-14T03:44:40;44.19;41.08;52.51;;
38366;Laerm;943;51.568;6.998;2024-02-14T03:47:12;44.73;41.12;58.74;;
38366;Laerm;943;51.568;6.998;2024-02-14T03:49:44;44.85;41.18;49.96;;
38366;Laerm;943;51.568;6.998;2024-02-14T03:52:13;44.31;41.05;50.36;;
38366;Laerm;943;51.568;6.998;2024-02-14T03:54:47;44.93;41.42;56.88;;
38366;Laerm;943;51.568;6.998;2024-02-14T03:57:18;46.30;42.42;61.85;;
38366;Laerm;943;51.568;6.998;2024-02-14T03:59:47;45.47;42.02;56.14;;
38366;Laerm;943;51.568;6.998;2024-02-14T04:02:16;46.04;42.56;61.42;;
38366;Laerm;943;51.568;6.998;2024-02-14T04:04:47;44.88;42.43;50.39;;
38366;Laerm;943;51.568;6.998;2024-02-14T04:07:16;45.19;42.23;54.86;;
38366;Laerm;943;51.568;6.998;2024-02-14T04:09:44;45.24;41.89;58.10;;
38366;Laerm;943;51.568;6.998;2024-02-14T04:12:14;46.87;42.29;62.81;;
38366;Laerm;943;51.568;6.998;2024-02-14T04:14:43;47.95;42.69;64.53;;
38366;Laerm;943;51.568;6.998;2024-02-14T04:17:15;46.46;43.34;61.70;;
38366;Laerm;943;51.568;6.998;2024-02-14T04:19:43;46.26;43.11;58.15;;
38366;Laerm;943;51.568;6.998;2024-02-14T04:22:12;46.94;43.17;66.88;;
38366;Laerm;943;51.568;6.998;2024-02-14T04:24:42;47.86;43.64;69.87;;
38366;Laerm;943;51.568;6.998;2024-02-14T04:27:13;47.77;44.20;60.47;;
38366;Laerm;943;51.568;6.998;2024-02-14T04:29:47;49.38;44.48;65.31;;
38366;Laerm;943;51.568;6.998;2024-02-14T04:32:19;50.78;43.44;66.00;;
38366;Laerm;943;51.568;6.998;2024-02-14T04:34:50;51.83;44.09;68.06;;
38366;Laerm;943;51.568;6.998;2024-02-14T04:37:20;49.18;43.63;63.70;;
38366;Laerm;943;51.568;6.998;2024-02-14T04:39:50;48.14;43.79;62.26;;
38366;Laerm;943;51.568;6.998;2024-02-14T04:42:19;48.07;43.29;67.30;;
38366;Laerm;943;51.568;6.998;2024-02-14T04:44:49;47.44;43.40;58.53;;
38366;Laerm;943;51.568;6.998;2024-02-14T04:47:18;50.34;44.07;66.44;;
38366;Laerm;943;51.568;6.998;2024-02-14T04:49:47;48.70;43.94;63.97;;
38366;Laerm;943;51.568;6.998;2024-02-14T04:52:17;49.14;43.91;59.12;;
38366;Laerm;943;51.568;6.998;2024-02-14T04:54:46;47.49;42.98;61.00;;
38366;Laerm;943;51.568;6.998;2024-02-14T04:57:16;48.57;43.13;64.28;;
38366;Laerm;943;51.568;6.998;2024-02-14T04:59:44;47.03;43.00;61.95;;
38366;Laerm;943;51.568;6.998;2024-02-14T05:02:13;47.81;43.87;59.09;;
38366;Laerm;943;51.568;6.998;2024-02-14T05:04:42;48.39;43.05;64.88;;
38366;Laerm;943;51.568;6.998;2024-02-14T05:07:10;50.63;43.98;68.30;;
38366;Laerm;943;51.568;6.998;2024-02-14T05:09:39;47.73;44.05;62.31;;
38366;Laerm;943;51.568;6.998;2024-02-14T05:12:13;47.23;43.81;56.17;;
38366;Laerm;943;51.568;6.998;2024-02-14T05:14:48;51.58;44.30;70.03;;
38366;Laerm;943;51.568;6.998;2024-02-14T05:17:18;49.12;44.71;62.13;;
38366;Laerm;943;51.568;6.998;2024-02-14T05:19:47;49.85;44.86;60.39;;
38366;Laerm;943;51.568;6.998;2024-02-14T05:22:16;53.27;44.50;69.21;;
38366;Laerm;943;51.568;6.998;2024-02-14T05:24:47;52.20;43.84;66.22;;
38366;Laerm;943;51.568;6.998;2024-02-14T05:27:15;52.79;44.83;70.12;;
38366;Laerm;943;51.568;6.998;2024-02-14T05:29:45;51.39;44.90;65.01;;
38366;Laerm;943;51.568;6.998;2024-02-14T05:32:14;52.15;43.89;70.27;;
38366;Laerm;943;51.568;6.998;2024-02-14T05:34:43;49.79;44.25;60.05;;
38366;Laerm;943;51.568;6.998;2024-02-14T05:37:12;51.54;44.17;66.97;;
38366;Laerm;943;51.568;6.998;2024-02-14T05:39:41;52.26;45.32;67.17;;
38366;Laerm;943;51.568;6.998;2024-02-14T05:42:10;53.08;44.61;67.14;;
38366;Laerm;943;51.568;6.998;2024-02-14T05:44:40;55.12;45.39;75.01;;
38366;Laerm;943;51.568;6.998;2024-02-14T05:47:12;51.60;44.89;63.36;;
38366;Laerm;943;51.568;6.998;2024-02-14T05:49:41;53.98;45.06;69.86;;
38366;Laerm;943;51.568;6.998;2024-02-14T05:52:10;54.42;45.14;69.74;;
38366;Laerm;943;51.568;6.998;2024-02-14T05:54:39;50.97;44.35;62.13;;
38366;Laerm;943;51.568;6.998;2024-02-14T05:57:08;50.68;44.37;68.95;;
38366;Laerm;943;51.568;6.998;2024-02-14T05:59:40;50.47;44.43;65.44;;
38366;Laerm;943;51.568;6.998;2024-02-14T06:02:10;53.85;44.30;73.20;;
38366;Laerm;943;51.568;6.998;2024-02-14T06:04:39;48.88;44.03;67.63;;
38366;Laerm;943;51.568;6.998;2024-02-14T06:07:12;51.83;44.01;83.55;;
38366;Laerm;943;51.568;6.998;2024-02-14T06:09:41;54.32;44.31;72.43;;
38366;Laerm;943;51.568;6.998;2024-02-14T06:12:11;51.45;44.72;67.33;;
38366;Laerm;943;51.568;6.998;2024-02-14T06:14:40;51.04;44.88;63.52;;
38366;Laerm;943;51.568;6.998;2024-02-14T06:17:09;53.03;45.43;66.27;;
38366;Laerm;943;51.568;6.998;2024-02-14T06:19:41;51.76;44.82;64.84;;
38366;Laerm;943;51.568;6.998;2024-02-14T06:22:11;51.98;45.53;67.76;;
38366;Laerm;943;51.568;6.998;2024-02-14T06:24:42;52.64;45.53;67.93;;
38366;Laerm;943;51.568;6.998;2024-02-14T06:27:14;50.05;43.99;69.75;;
38366;Laerm;943;51.568;6.998;2024-02-14T06:29:44;51.55;44.04;71.32;;
38366;Laerm;943;51.568;6.998;2024-02-14T06:32:14;52.81;44.16;71.50;;
38366;Laerm;943;51.568;6.998;2024-02-14T06:34:42;51.48;45.45;72.43;;
38366;Laerm;943;51.568;6.998;2024-02-14T06:37:11;49.77;45.65;68.42;;
38366;Laerm;943;51.568;6.998;2024-02-14T06:39:39;48.27;44.42;60.54;;
38366;Laerm;943;51.568;6.998;2024-02-14T06:42:08;47.66;44.86;58.44;;
38366;Laerm;943;51.568;6.998;2024-02-14T06:44:37;47.43;44.31;52.60;;
38366;Laerm;943;51.568;6.998;2024-02-14T06:47:06;50.24;45.74;66.69;;
38366;Laerm;943;51.568;6.998;2024-02-14T06:49:34;47.93;44.36;65.40;;
38366;Laerm;943;51.568;6.998;2024-02-14T06:52:03;49.51;44.64;64.09;;
38366;Laerm;943;51.568;6.998;2024-02-14T06:54:32;47.77;44.82;56.57;;
38366;Laerm;943;51.568;6.998;2024-02-14T06:57:01;49.03;44.02;63.75;;
38366;Laerm;943;51.568;6.998;2024-02-14T06:59:31;48.38;44.81;56.19;;
38366;Laerm;943;51.568;6.998;2024-02-14T07:02:02;51.78;45.12;69.59;;
38366;Laerm;943;51.568;6.998;2024-02-14T07:04:41;47.61;44.35;61.66;;
38366;Laerm;943;51.568;6.998;2024-02-14T07:07:10;48.07;44.58;62.04;;
38366;Laerm;943;51.568;6.998;2024-02-14T07:09:40;48.28;44.66;57.96;;
38366;Laerm;943;51.568;6.998;2024-02-14T07:12:09;48.23;43.96;60.85;;
38366;Laerm;943;51.568;6.998;2024-02-14T07:14:38;50.67;44.20;72.51;;
38366;Laerm;943;51.568;6.998;2024-02-14T07:17:07;48.37;44.99;60.48;;
38366;Laerm;943;51.568;6.998;2024-02-14T07:19:38;49.39;44.08;66.32;;
38366;Laerm;943;51.568;6.998;2024-02-14T07:22:07;49.95;45.27;68.39;;
38366;Laerm;943;51.568;6.998;2024-02-14T07:24:36;48.87;45.61;69.79;;
38366;Laerm;943;51.568;6.998;2024-02-14T07:27:05;50.10;47.53;57.28;;
38366;Laerm;943;51.568;6.998;2024-02-14T07:29:38;56.72;47.52;65.23;;
38366;Laerm;943;51.568;6.998;2024-02-14T07:32:09;57.72;49.86;65.70;;
38366;Laerm;943;51.568;6.998;2024-02-14T07:34:41;58.01;52.52;66.62;;
38366;Laerm;943;51.568;6.998;2024-02-14T07:37:10;59.03;53.65;66.81;;
38366;Laerm;943;51.568;6.998;2024-02-14T07:39:38;59.44;54.63;70.08;;
38366;Laerm;943;51.568;6.998;2024-02-14T07:42:08;57.40;47.93;67.11;;
38366;Laerm;943;51.568;6.998;2024-02-14T07:44:37;52.93;48.65;56.49;;
38366;Laerm;943;51.568;6.998;2024-02-14T07:47:05;50.75;47.18;64.80;;
38366;Laerm;943;51.568;6.998;2024-02-14T07:49:36;49.25;46.25;58.28;;
38366;Laerm;943;51.568;6.998;2024-02-14T07:52:07;48.64;46.21;56.76;;
38366;Laerm;943;51.568;6.998;2024-02-14T07:54:36;49.15;46.35;57.73;;
38366;Laerm;943;51.568;6.998;2024-02-14T07:57:07;53.70;49.01;58.97;;
38366;Laerm;943;51.568;6.998;2024-02-14T07:59:36;54.12;49.53;66.35;;
38366;Laerm;943;51.568;6.998;2024-02-14T08:02:06;52.77;46.71;65.64;;
38366;Laerm;943;51.568;6.998;2024-02-14T08:04:34;49.44;45.30;71.38;;
38366;Laerm;943;51.568;6.998;2024-02-14T08:07:04;51.06;46.34;59.87;;
38366;Laerm;943;51.568;6.998;2024-02-14T08:09:34;52.96;48.00;65.75;;
38366;Laerm;943;51.568;6.998;2024-02-14T08:12:03;51.01;45.39;63.20;;
38366;Laerm;943;51.568;6.998;2024-02-14T08:14:34;50.10;46.15;61.78;;
38366;Laerm;943;51.568;6.998;2024-02-14T08:17:04;51.67;46.09;68.26;;
38366;Laerm;943;51.568;6.998;2024-02-14T08:19:34;50.49;44.95;66.93;;
38366;Laerm;943;51.568;6.998;2024-02-14T08:22:08;53.62;45.18;72.69;;
38366;Laerm;943;51.568;6.998;2024-02-14T08:24:38;49.40;44.87;66.44;;
38366;Laerm;943;51.568;6.998;2024-02-14T08:27:09;48.96;45.19;60.20;;
38366;Laerm;943;51.568;6.998;2024-02-14T08:29:40;49.08;44.76;58.95;;
38366;Laerm;943;51.568;6.998;2024-02-14T08:32:12;47.95;44.50;55.64;;
38366;Laerm;943;51.568;6.998;2024-02-14T08:34:40;48.00;44.91;55.72;;
38366;Laerm;943;51.568;6.998;2024-02-14T08:37:11;47.88;45.21;54.04;;
38366;Laerm;943;51.568;6.998;2024-02-14T08:39:41;48.30;45.29;56.08;;
38366;Laerm;943;51.568;6.998;2024-02-14T08:42:10;48.02;44.70;56.80;;
38366;Laerm;943;51.568;6.998;2024-02-14T08:44:38;48.81;44.63;59.11;;
38366;Laerm;943;51.568;6.998;2024-02-14T08:47:08;48.99;45.38;58.71;;
38366;Laerm;943;51.568;6.998;2024-02-14T08:49:41;48.72;45.56;60.77;;
38366;Laerm;943;51.568;6.998;2024-02-14T08:52:12;50.66;45.86;71.22;;
38366;Laerm;943;51.568;6.998;2024-02-14T08:54:41;50.51;46.54;64.99;;
38366;Laerm;943;51.568;6.998;2024-02-14T08:57:11;49.91;45.36;67.75;;
38366;Laerm;943;51.568;6.998;2024-02-14T08:59:48;48.24;44.75;61.09;;
38366;Laerm;943;51.568;6.998;2024-02-14T09:02:19;48.62;45.62;54.19;;
38366;Laerm;943;51.568;6.998;2024-02-14T09:04:48;49.21;46.05;58.03;;
38366;Laerm;943;51.568;6.998;2024-02-14T09:07:19;48.45;44.71;57.32;;
38366;Laerm;943;51.568;6.998;2024-02-14T09:09:49;48.99;45.11;67.53;;
38366;Laerm;943;51.568;6.998;2024-02-14T09:12:25;49.07;44.46;67.32;;
38366;Laerm;943;51.568;6.998;2024-02-14T09:14:57;48.91;45.00;60.29;;
38366;Laerm;943;51.568;6.998;2024-02-14T09:17:27;48.64;45.17;59.95;;
38366;Laerm;943;51.568;6.998;2024-02-14T09:19:57;48.44;45.61;64.52;;
38366;Laerm;943;51.568;6.998;2024-02-14T09:22:29;49.92;45.72;62.93;;
38366;Laerm;943;51.568;6.998;2024-02-14T09:24:58;50.15;45.68;61.35;;
38366;Laerm;943;51.568;6.998;2024-02-14T09:27:33;47.88;45.23;58.78;;
38366;Laerm;943;51.568;6.998;2024-02-14T09:30:15;48.79;44.98;65.83;;
38366;Laerm;943;51.568;6.998;2024-02-14T09:33:09;47.90;44.49;57.29;;
38366;Laerm;943;51.568;6.998;2024-02-14T09:35:53;50.38;44.72;68.39;;
38366;Laerm;943;51.568;6.998;2024-02-14T09:38:34;50.72;45.13;80.23;;
38366;Laerm;943;51.568;6.998;2024-02-14T09:41:41;55.39;44.75;79.24;;
38366;Laerm;943;51.568;6.998;2024-02-14T09:44:13;48.77;45.40;57.46;;
38366;Laerm;943;51.568;6.998;2024-02-14T09:46:43;48.16;45.48;56.11;;
38366;Laerm;943;51.568;6.998;2024-02-14T09:49:17;52.12;46.01;69.83;;
38366;Laerm;943;51.568;6.998;2024-02-14T09:51:53;50.17;45.53;70.24;;
38366;Laerm;943;51.568;6.998;2024-02-14T09:54:25;49.17;45.59;65.10;;
38366;Laerm;943;51.568;6.998;2024-02-14T09:56:58;50.84;45.03;63.25;;
38366;Laerm;943;51.568;6.998;2024-02-14T09:59:30;48.81;45.62;58.51;;
38366;Laerm;943;51.568;6.998;2024-02-14T10:02:02;48.43;45.28;60.48;;
38366;Laerm;943;51.568;6.998;2024-02-14T10:10:26;53.17;45.66;64.08;;
38366;Laerm;943;51.568;6.998;2024-02-14T10:12:58;49.68;45.04;62.64;;
38366;Laerm;943;51.568;6.998;2024-02-14T10:15:27;49.97;44.94;61.87;;
38366;Laerm;943;51.568;6.998;2024-02-14T10:18:03;50.56;44.83;65.75;;
38366;Laerm;943;51.568;6.998;2024-02-14T10:20:53;48.81;45.09;60.58;;
38366;Laerm;943;51.568;6.998;2024-02-14T10:23:23;52.84;45.70;69.42;;
38366;Laerm;943;51.568;6.998;2024-02-14T10:25:59;50.47;45.05;59.43;;
38366;Laerm;943;51.568;6.998;2024-02-14T10:28:35;49.77;45.35;59.90;;
38366;Laerm;943;51.568;6.998;2024-02-14T10:31:13;49.16;44.21;58.65;;
38366;Laerm;943;51.568;6.998;2024-02-14T10:33:42;47.26;43.53;59.09;;
38366;Laerm;943;51.568;6.998;2024-02-14T10:36:14;48.54;45.40;60.78;;
38366;Laerm;943;51.568;6.998;2024-02-14T10:38:50;50.76;45.79;63.52;;
38366;Laerm;943;51.568;6.998;2024-02-14T10:41:19;50.17;44.60;58.51;;
38366;Laerm;943;51.568;6.998;2024-02-14T10:43:49;56.47;45.10;75.11;;
38366;Laerm;943;51.568;6.998;2024-02-14T10:46:25;49.45;45.38;62.03;;
38366;Laerm;943;51.568;6.998;2024-02-14T10:49:04;48.23;44.40;64.68;;
38366;Laerm;943;51.568;6.998;2024-02-14T10:51:38;48.02;44.24;61.69;;
38366;Laerm;943;51.568;6.998;2024-02-14T10:54:12;51.21;45.24;60.40;;
38366;Laerm;943;51.568;6.998;2024-02-14T10:56:53;53.53;44.64;67.89;;
38366;Laerm;943;51.568;6.998;2024-02-14T10:59:27;50.05;44.88;58.73;;
38366;Laerm;943;51.568;6.998;2024-02-14T11:01:59;50.74;44.43;66.24;;
38366;Laerm;943;51.568;6.998;2024-02-14T11:04:31;50.79;44.94;59.00;;
38366;Laerm;943;51.568;6.998;2024-02-14T11:07:10;50.40;44.18;60.29;;
38366;Laerm;943;51.568;6.998;2024-02-14T11:09:40;51.16;45.79;62.39;;
38366;Laerm;943;51.568;6.998;2024-02-14T11:12:22;52.39;45.15;61.79;;
38366;Laerm;943;51.568;6.998;2024-02-14T11:14:58;52.39;45.07;63.17;;
38366;Laerm;943;51.568;6.998;2024-02-14T11:17:31;62.46;45.46;79.22;;
38366;Laerm;943;51.568;6.998;2024-02-14T11:20:15;49.05;44.60;59.73;;
38366;Laerm;943;51.568;6.998;2024-02-14T11:23:05;57.22;46.26;70.23;;
38366;Laerm;943;51.568;6.998;2024-02-14T11:25:38;52.12;44.82;69.86;;
38366;Laerm;943;51.568;6.998;2024-02-14T11:28:26;48.16;44.58;61.16;;
38366;Laerm;943;51.568;6.998;2024-02-14T11:31:10;50.96;44.10;60.17;;
38366;Laerm;943;51.568;6.998;2024-02-14T11:33:39;49.68;45.29;59.66;;
38366;Laerm;943;51.568;6.998;2024-02-14T11:36:13;48.37;44.42;60.96;;
38366;Laerm;943;51.568;6.998;2024-02-14T11:38:44;50.13;45.43;65.52;;
38366;Laerm;943;51.568;6.998;2024-02-14T11:41:14;47.98;44.87;56.80;;
38366;Laerm;943;51.568;6.998;2024-02-14T11:43:52;48.05;44.69;66.81;;
38366;Laerm;943;51.568;6.998;2024-02-14T11:46:22;49.95;44.93;66.61;;
38366;Laerm;943;51.568;6.998;2024-02-14T11:48:54;47.73;44.36;56.29;;
38366;Laerm;943;51.568;6.998;2024-02-14T11:51:23;47.28;44.76;58.02;;
38366;Laerm;943;51.568;6.998;2024-02-14T11:53:52;48.61;44.79;64.40;;
38366;Laerm;943;51.568;6.998;2024-02-14T11:56:26;49.14;44.48;63.71;;
38366;Laerm;943;51.568;6.998;2024-02-14T11:59:07;48.42;44.15;61.03;;
38366;Laerm;943;51.568;6.998;2024-02-14T12:01:43;48.34;45.13;61.97;;
38366;Laerm;943;51.568;6.998;2024-02-14T12:04:15;47.47;44.26;58.36;;
38366;Laerm;943;51.568;6.998;2024-02-14T12:06:45;47.12;43.60;54.78;;
38366;Laerm;943;51.568;6.998;2024-02-14T12:09:18;47.68;44.33;59.49;;
38366;Laerm;943;51.568;6.998;2024-02-14T12:11:50;48.10;44.37;58.99;;
38366;Laerm;943;51.568;6.998;2024-02-14T12:14:32;51.97;44.81;71.48;;
38366;Laerm;943;51.568;6.998;2024-02-14T12:17:07;48.77;44.76;62.63;;
38366;Laerm;943;51.568;6.998;2024-02-14T12:19:40;49.57;43.14;65.82;;
38366;Laerm;943;51.568;6.998;2024-02-14T12:22:19;48.74;44.46;63.63;;
38366;Laerm;943;51.568;6.998;2024-02-14T12:24:58;49.85;44.72;65.42;;
38366;Laerm;943;51.568;6.998;2024-02-14T12:27:31;48.21;44.11;69.57;;
38366;Laerm;943;51.568;6.998;2024-02-14T12:30:06;48.38;43.52;65.95;;
38366;Laerm;943;51.568;6.998;2024-02-14T12:32:45;48.91;44.37;68.77;;
38366;Laerm;943;51.568;6.998;2024-02-14T12:35:16;49.74;43.81;67.92;;
38366;Laerm;943;51.568;6.998;2024-02-14T12:37:45;48.58;43.07;60.08;;
38366;Laerm;943;51.568;6.998;2024-02-14T12:40:13;48.39;45.08;64.65;;
38366;Laerm;943;51.568;6.998;2024-02-14T12:42:43;52.94;45.52;71.05;;
38366;Laerm;943;51.568;6.998;2024-02-14T12:45:12;52.60;45.41;69.39;;
38366;Laerm;943;51.568;6.998;2024-02-14T12:47:44;54.26;44.35;71.28;;
38366;Laerm;943;51.568;6.998;2024-02-14T12:50:12;50.71;45.26;68.23;;
38366;Laerm;943;51.568;6.998;2024-02-14T12:52:41;49.97;44.00;69.96;;
38366;Laerm;943;51.568;6.998;2024-02-14T12:55:10;55.30;45.87;74.33;;
38366;Laerm;943;51.568;6.998;2024-02-14T12:57:41;50.85;44.07;68.49;;
38366;Laerm;943;51.568;6.998;2024-02-14T13:00:11;47.25;43.97;54.21;;
38366;Laerm;943;51.568;6.998;2024-02-14T13:02:43;51.30;44.39;70.15;;
38366;Laerm;943;51.568;6.998;2024-02-14T13:05:13;55.52;44.21;79.25;;
38366;Laerm;943;51.568;6.998;2024-02-14T13:07:43;47.78;44.28;63.51;;
38366;Laerm;943;51.568;6.998;2024-02-14T13:10:13;46.73;43.93;53.07;;
38366;Laerm;943;51.568;6.998;2024-02-14T13:12:45;48.00;44.98;57.21;;
38366;Laerm;943;51.568;6.998;2024-02-14T13:15:14;47.74;44.42;57.31;;
38366;Laerm;943;51.568;6.998;2024-02-14T13:17:49;47.12;44.45;52.53;;
38366;Laerm;943;51.568;6.998;2024-02-14T13:20:19;47.12;44.42;58.51;;
38366;Laerm;943;51.568;6.998;2024-02-14T13:22:48;47.37;43.81;68.03;;
38366;Laerm;943;51.568;6.998;2024-02-14T13:25:17;47.98;44.31;62.29;;
38366;Laerm;943;51.568;6.998;2024-02-14T13:27:46;47.38;44.75;60.69;;
38366;Laerm;943;51.568;6.998;2024-02-14T13:30:19;46.89;43.75;63.61;;
38366;Laerm;943;51.568;6.998;2024-02-14T13:32:50;46.68;43.48;57.93;;
38366;Laerm;943;51.568;6.998;2024-02-14T13:35:21;53.54;44.11;61.71;;
38366;Laerm;943;51.568;6.998;2024-02-14T13:37:50;55.44;53.34;63.90;;
38366;Laerm;943;51.568;6.998;2024-02-14T13:40:19;55.31;53.35;65.25;;
38366;Laerm;943;51.568;6.998;2024-02-14T13:42:48;55.12;52.88;63.73;;
38366;Laerm;943;51.568;6.998;2024-02-14T13:45:17;55.19;53.37;62.84;;
38366;Laerm;943;51.568;6.998;2024-02-14T13:47:49;54.87;52.96;58.18;;
38366;Laerm;943;51.568;6.998;2024-02-14T13:50:21;51.43;44.96;58.43;;
38366;Laerm;943;51.568;6.998;2024-02-14T13:52:50;48.54;45.72;63.40;;
38366;Laerm;943;51.568;6.998;2024-02-14T13:55:19;51.78;46.07;55.76;;
38366;Laerm;943;51.568;6.998;2024-02-14T13:57:49;52.94;50.56;62.00;;
38366;Laerm;943;51.568;6.998;2024-02-14T14:00:18;53.58;50.78;63.67;;
38366;Laerm;943;51.568;6.998;2024-02-14T14:02:46;52.44;50.20;55.01;;
38366;Laerm;943;51.568;6.998;2024-02-14T14:05:15;52.58;50.28;59.71;;
38366;Laerm;943;51.568;6.998;2024-02-14T14:07:47;52.81;50.63;66.79;;
38366;Laerm;943;51.568;6.998;2024-02-14T14:10:28;53.71;50.96;65.43;;
38366;Laerm;943;51.568;6.998;2024-02-14T14:12:57;50.78;46.37;63.14;;
38366;Laerm;943;51.568;6.998;2024-02-14T14:15:32;50.57;45.35;71.00;;
38366;Laerm;943;51.568;6.998;2024-02-14T14:18:01;53.11;45.62;69.50;;
38366;Laerm;943;51.568;6.998;2024-02-14T14:20:32;47.63;43.83;61.37;;
38366;Laerm;943;51.568;6.998;2024-02-14T14:23:04;48.04;44.86;70.24;;
38366;Laerm;943;51.568;6.998;2024-02-14T14:25:33;49.09;45.23;61.65;;
38366;Laerm;943;51.568;6.998;2024-02-14T14:28:03;49.75;46.36;57.65;;
38366;Laerm;943;51.568;6.998;2024-02-14T14:30:36;51.24;46.02;72.17;;
38366;Laerm;943;51.568;6.998;2024-02-14T14:33:09;53.99;45.54;78.76;;
38366;Laerm;943;51.568;6.998;2024-02-14T14:35:43;50.47;47.35;62.78;;
38366;Laerm;943;51.568;6.998;2024-02-14T14:38:15;50.45;47.61;63.46;;